Time;durP1;ratioP1;P1;durP2;ratioP2;P2;SDS_P1;SDS_P2;PMS_P1;PMS_P2;Temp;Humidity;BMP_temperature;BMP_pressure;BME280_temperature;BME280_humidity;BME280_pressure;Samples;Min_cycle;Max_cycle;Signal;HPM_P1;HPM_P2
2022/01/03 00:00:27;;;;;;;2.58;1.15;;;22.10;49.50;;;;;;5055642;28;20055;-58
2022/01/03 00:02:56;;;;;;;6.13;1.10;;;22.10;49.60;;;;;;5051958;28;20036;-58
2022/01/03 00:05:22;;;;;;;5.88;1.30;;;22.10;49.70;;;;;;5053727;28;20472;-58
2022/01/03 00:07:48;;;;;;;7.85;1.40;;;22.10;49.60;;;;;;5063613;28;20498;-58
2022/01/03 00:10:15;;;;;;;6.40;1.30;;;22.00;49.50;;;;;;5047217;28;20033;-58
2022/01/03 00:12:42;;;;;;;5.30;1.27;;;22.00;49.60;;;;;;5063977;28;20062;-58
2022/01/03 00:15:13;;;;;;;5.60;1.05;;;22.00;49.50;;;;;;5054204;28;20468;-58
2022/01/03 00:17:40;;;;;;;;;;;22.00;49.50;;;;;;5051624;28;20124;-58
2022/01/03 00:20:07;;;;;;;3.28;1.08;;;22.00;49.30;;;;;;5054169;28;20406;-58
2022/01/03 00:22:40;;;;;;;3.90;1.50;;;21.90;49.60;;;;;;5068008;28;20047;-58
2022/01/03 00:25:15;;;;;;;4.32;1.27;;;21.90;49.60;;;;;;5069291;28;20119;-58
2022/01/03 00:27:47;;;;;;;5.50;1.35;;;21.90;49.60;;;;;;5066032;28;20040;-58
2022/01/03 00:30:15;;;;;;;8.02;1.55;;;21.90;49.60;;;;;;5051606;28;20040;-58
2022/01/03 00:32:43;;;;;;;5.65;1.60;;;21.90;49.50;;;;;;5054022;28;20537;-58
2022/01/03 00:35:09;;;;;;;5.68;1.35;;;21.80;49.40;;;;;;5053053;28;20037;-58
2022/01/03 00:37:35;;;;;;;8.32;2.08;;;21.80;49.50;;;;;;5053904;28;20129;-58
2022/01/03 00:40:02;;;;;;;5.82;1.77;;;21.80;49.50;;;;;;5061504;28;20037;-58
2022/01/03 00:42:28;;;;;;;5.78;1.63;;;21.80;49.50;;;;;;5060331;28;20048;-58
2022/01/03 00:44:54;;;;;;;4.63;1.27;;;21.80;49.40;;;;;;5054192;28;20117;-58
2022/01/03 00:47:20;;;;;;;5.95;1.70;;;21.80;49.40;;;;;;5060507;28;20439;-58
2022/01/03 00:49:46;;;;;;;6.63;1.40;;;21.80;49.50;;;;;;5070718;28;20495;-58
2022/01/03 00:52:12;;;;;;;6.28;1.60;;;21.70;49.40;;;;;;5068256;28;20479;-58
2022/01/03 00:54:38;;;;;;;7.47;1.90;;;21.70;49.40;;;;;;5065173;28;20357;-58
2022/01/03 00:57:07;;;;;;;4.95;1.40;;;21.70;49.30;;;;;;5072894;28;20037;-58
2022/01/03 00:59:43;;;;;;;7.93;1.80;;;21.70;49.40;;;;;;5053529;28;20124;-58
2022/01/03 01:02:11;;;;;;;9.88;1.45;;;21.70;49.30;;;;;;5067406;28;20040;-58
2022/01/03 01:04:37;;;;;;;7.13;1.70;;;21.70;49.40;;;;;;5073558;28;20395;-58
2022/01/03 01:07:05;;;;;;;7.13;1.70;;;21.70;49.40;;;;;;5065514;28;20115;-58
2022/01/03 01:09:31;;;;;;;7.45;1.88;;;21.60;49.30;;;;;;5072364;28;20040;-58
2022/01/03 01:11:59;;;;;;;5.22;1.73;;;21.60;49.30;;;;;;5066416;28;20043;-58
2022/01/03 01:14:26;;;;;;;6.68;2.25;;;21.60;49.30;;;;;;5070458;28;21257;-58
2022/01/03 01:16:52;;;;;;;5.30;1.40;;;21.60;49.40;;;;;;5054823;28;20044;-58
2022/01/03 01:19:19;;;;;;;6.18;1.75;;;21.60;49.30;;;;;;5052965;28;20067;-58
2022/01/03 01:21:50;;;;;;;6.03;1.67;;;21.60;49.30;;;;;;5057190;28;20049;-58
2022/01/03 01:24:19;;;;;;;4.32;1.48;;;21.60;49.40;;;;;;5048543;28;20159;-58
2022/01/03 01:29:29;;;;;;;4.60;1.42;;;21.50;50.00;;;;;;5050356;28;20059;-58
2022/01/03 01:31:59;;;;;;;6.93;2.08;;;21.50;49.30;;;;;;5070136;28;20145;-58
2022/01/03 01:34:28;;;;;;;5.63;1.87;;;21.50;49.30;;;;;;5050972;28;20418;-58
2022/01/03 01:36:56;;;;;;;9.15;2.50;;;21.50;49.20;;;;;;5051930;28;20072;-58
2022/01/03 01:39:24;;;;;;;4.65;1.60;;;21.50;49.20;;;;;;5067769;28;20163;-58
2022/01/03 01:41:55;;;;;;;9.80;2.17;;;21.50;49.20;;;;;;5067845;28;20502;-58
2022/01/03 01:44:22;;;;;;;6.25;1.80;;;21.50;49.20;;;;;;5053168;28;20083;-58
2022/01/03 01:46:53;;;;;;;5.60;1.80;;;21.50;49.20;;;;;;5054825;28;20040;-58
2022/01/03 01:49:21;;;;;;;7.28;2.05;;;21.40;49.20;;;;;;5073237;28;20052;-58
2022/01/03 01:51:55;;;;;;;6.63;2.08;;;21.40;49.20;;;;;;5065564;28;20115;-58
2022/01/03 01:54:36;;;;;;;4.95;1.70;;;21.40;49.10;;;;;;5072573;28;20048;-58
2022/01/03 01:57:07;;;;;;;6.75;1.98;;;21.40;49.10;;;;;;5048865;28;20045;-59
2022/01/03 01:59:54;;;;;;;5.45;2.22;;;21.40;49.20;;;;;;5057366;28;20048;-58
2022/01/03 02:02:37;;;;;;;5.55;1.95;;;21.40;49.10;;;;;;5070230;28;20491;-58
2022/01/03 02:05:19;;;;;;;8.80;2.55;;;21.40;49.10;;;;;;5080414;28;20075;-58
2022/01/03 02:07:47;;;;;;;6.72;2.00;;;21.30;49.10;;;;;;5063380;28;20040;-58
2022/01/03 02:10:15;;;;;;;6.65;2.00;;;21.30;49.20;;;;;;5052523;28;20369;-58
2022/01/03 02:12:42;;;;;;;6.85;2.13;;;21.30;49.10;;;;;;5052911;28;20037;-58
2022/01/03 02:15:11;;;;;;;8.77;2.30;;;21.30;49.10;;;;;;5050316;28;20037;-58
2022/01/03 02:17:37;;;;;;;11.82;2.13;;;21.30;49.10;;;;;;5049164;28;20037;-58
2022/01/03 02:20:09;;;;;;;8.75;2.42;;;21.30;49.10;;;;;;5046454;28;20049;-58
2022/01/03 02:22:39;;;;;;;8.15;2.17;;;21.30;49.00;;;;;;5072250;28;20059;-58
2022/01/03 02:25:08;;;;;;;3.03;1.10;;;21.30;49.10;;;;;;5070036;28;20037;-58
2022/01/03 02:27:34;;;;;;;7.28;2.15;;;21.30;49.10;;;;;;5073821;28;20407;-58
2022/01/03 02:30:01;;;;;;;8.25;2.15;;;21.30;49.10;;;;;;5072628;28;20043;-58
2022/01/03 02:32:27;;;;;;;8.52;2.30;;;21.30;49.00;;;;;;5095379;28;20387;-58
2022/01/03 02:34:52;;;;;;;8.95;2.22;;;21.20;48.90;;;;;;5064862;28;20094;-58
2022/01/03 02:37:18;;;;;;;8.38;1.98;;;21.20;49.00;;;;;;5072055;28;20553;-58
2022/01/03 02:39:44;;;;;;;5.68;1.80;;;21.20;48.90;;;;;;5066686;28;20047;-58
2022/01/03 02:42:11;;;;;;;7.82;2.20;;;21.20;48.90;;;;;;5061866;28;20490;-58
2022/01/03 02:44:36;;;;;;;6.82;2.03;;;21.20;48.90;;;;;;5063237;28;20155;-58
2022/01/03 02:47:02;;;;;;;5.72;1.80;;;21.20;48.90;;;;;;5064534;28;20068;-57
2022/01/03 02:49:28;;;;;;;9.30;2.03;;;21.10;48.80;;;;;;5057777;28;20045;-58
2022/01/03 02:51:53;;;;;;;7.70;2.00;;;21.20;48.90;;;;;;5072529;28;20041;-58
2022/01/03 02:54:19;;;;;;;7.35;1.77;;;21.20;48.80;;;;;;5076071;28;20456;-57
2022/01/03 02:56:44;;;;;;;5.55;1.90;;;21.20;48.90;;;;;;5055926;28;20095;-57
2022/01/03 02:59:14;;;;;;;7.70;2.20;;;21.10;48.80;;;;;;5057960;28;20043;-58
2022/01/03 03:01:44;;;;;;;7.07;2.43;;;21.10;48.80;;;;;;5066946;28;20033;-57
2022/01/03 03:04:10;;;;;;;6.77;1.70;;;21.20;48.80;;;;;;5069300;28;20048;-58
2022/01/03 03:06:35;;;;;;;5.82;2.00;;;21.10;48.70;;;;;;5071703;28;20041;-57
2022/01/03 03:09:04;;;;;;;5.25;1.75;;;21.10;48.70;;;;;;5062763;28;20047;-57
2022/01/03 03:11:32;;;;;;;8.52;2.10;;;21.10;48.70;;;;;;5055232;28;20118;-58
2022/01/03 03:13:58;;;;;;;7.13;2.00;;;21.10;48.70;;;;;;5048774;28;20048;-58
2022/01/03 03:16:25;;;;;;;7.07;2.05;;;21.10;48.70;;;;;;5051603;28;20091;-58
2022/01/03 03:18:51;;;;;;;7.60;1.92;;;21.10;48.70;;;;;;5050236;28;20041;-58
2022/01/03 03:21:16;;;;;;;4.75;1.70;;;21.00;48.60;;;;;;5050059;28;20090;-58
2022/01/03 03:23:42;;;;;;;9.63;2.08;;;21.10;48.70;;;;;;5052765;28;20132;-58
2022/01/03 03:26:09;;;;;;;8.65;2.05;;;21.00;48.60;;;;;;5051546;28;20056;-58
2022/01/03 03:28:34;;;;;;;6.78;2.10;;;21.00;48.60;;;;;;5055421;28;20116;-58
2022/01/03 03:31:00;;;;;;;5.30;2.13;;;21.00;48.60;;;;;;5058944;28;20135;-58
2022/01/03 03:33:29;;;;;;;8.82;2.55;;;21.00;48.60;;;;;;5075767;28;20033;-58
2022/01/03 03:35:56;;;;;;;10.23;2.33;;;21.00;48.50;;;;;;5062286;28;20076;-58
2022/01/03 03:38:25;;;;;;;6.47;2.28;;;21.00;48.60;;;;;;5072499;28;20040;-58
2022/01/03 03:40:52;;;;;;;7.30;1.88;;;21.00;48.50;;;;;;5053325;28;20474;-58
2022/01/03 03:43:18;;;;;;;6.60;2.13;;;21.00;48.50;;;;;;5060236;28;20040;-58
2022/01/03 03:45:45;;;;;;;9.20;2.58;;;21.00;48.50;;;;;;5075049;28;20090;-58
2022/01/03 03:48:11;;;;;;;9.20;2.58;;;21.00;48.50;;;;;;5076388;28;20040;-58
2022/01/03 03:50:37;;;;;;;9.10;2.75;;;21.00;48.50;;;;;;5062913;28;20149;-58
2022/01/03 03:53:04;;;;;;;9.15;2.00;;;20.90;48.50;;;;;;5053988;28;20056;-58
2022/01/03 03:55:31;;;;;;;7.72;2.20;;;20.90;48.50;;;;;;5054832;28;20118;-58
2022/01/03 03:57:57;;;;;;;11.43;2.55;;;20.90;48.50;;;;;;5055203;28;20041;-59
2022/01/03 04:00:23;;;;;;;8.60;2.00;;;20.90;48.50;;;;;;5054679;28;20045;-58
2022/01/03 04:02:49;;;;;;;8.13;2.55;;;21.00;48.50;;;;;;5056560;28;20452;-58
2022/01/03 04:05:15;;;;;;;7.72;2.53;;;20.90;48.50;;;;;;5071687;28;20047;-58
2022/01/03 04:07:40;;;;;;;13.07;2.55;;;20.90;48.50;;;;;;5062696;28;20036;-58
2022/01/03 04:10:08;;;;;;;8.55;2.40;;;20.90;48.50;;;;;;5072256;28;20037;-59
2022/01/03 04:12:34;;;;;;;10.10;2.33;;;20.90;48.60;;;;;;5053819;28;20102;-58
2022/01/03 04:14:59;;;;;;;6.68;2.10;;;20.90;48.50;;;;;;5053493;28;20032;-58
2022/01/03 04:17:25;;;;;;;6.40;2.13;;;20.90;48.50;;;;;;5074372;28;20032;-58
2022/01/03 04:19:51;;;;;;;5.63;2.33;;;20.90;48.50;;;;;;5066934;28;20028;-58
2022/01/03 04:22:16;;;;;;;7.90;2.10;;;20.90;48.50;;;;;;5074741;28;20060;-58
2022/01/03 04:24:42;;;;;;;7.85;2.10;;;20.90;48.50;;;;;;5060623;28;20123;-59
2022/01/03 04:27:07;;;;;;;7.38;2.10;;;20.90;48.50;;;;;;5047436;28;20033;-58
2022/01/03 04:29:33;;;;;;;8.75;2.30;;;20.90;48.60;;;;;;5052257;28;20036;-58
2022/01/03 04:31:59;;;;;;;7.57;2.25;;;20.90;48.50;;;;;;5071487;28;20128;-58
2022/01/03 04:34:25;;;;;;;8.63;2.40;;;20.90;48.50;;;;;;5073269;28;20036;-58
2022/01/03 04:36:50;;;;;;;9.35;2.50;;;20.80;48.40;;;;;;5066729;28;20060;-58
2022/01/03 04:39:16;;;;;;;8.98;2.20;;;20.80;48.50;;;;;;5068962;28;20079;-58
2022/01/03 04:41:41;;;;;;;9.35;2.53;;;20.80;48.50;;;;;;5066482;28;20028;-58
2022/01/03 04:44:07;;;;;;;10.57;2.53;;;20.80;48.40;;;;;;5055189;28;20041;-58
2022/01/03 04:46:34;;;;;;;9.07;2.05;;;20.80;48.40;;;;;;5058506;28;20139;-58
2022/01/03 04:48:59;;;;;;;8.35;2.40;;;20.80;48.50;;;;;;5050838;28;20120;-58
2022/01/03 04:51:25;;;;;;;7.45;2.47;;;20.80;48.50;;;;;;5050105;28;20068;-58
2022/01/03 04:53:51;;;;;;;9.48;2.60;;;20.80;48.50;;;;;;5056124;28;20527;-58
2022/01/03 04:56:18;;;;;;;9.57;2.20;;;20.80;48.40;;;;;;5058263;28;20084;-58
2022/01/03 04:58:43;;;;;;;8.73;2.30;;;20.70;48.40;;;;;;5062955;28;20494;-58
2022/01/03 05:01:10;;;;;;;9.45;2.60;;;20.70;48.40;;;;;;5067103;28;20033;-58
2022/01/03 05:03:36;;;;;;;10.85;2.75;;;20.70;48.40;;;;;;5060063;28;20040;-58
2022/01/03 05:06:03;;;;;;;11.02;2.58;;;20.70;48.40;;;;;;5051672;28;20055;-58
2022/01/03 05:08:32;;;;;;;8.77;2.97;;;20.70;48.30;;;;;;5067058;28;20540;-58
2022/01/03 05:11:02;;;;;;;9.40;2.50;;;20.70;48.40;;;;;;5055554;28;20404;-58
2022/01/03 05:13:29;;;;;;;10.77;2.88;;;20.70;48.40;;;;;;5059072;28;20052;-58
2022/01/03 05:15:54;;;;;;;8.05;2.65;;;20.70;48.40;;;;;;5053410;28;20045;-58
2022/01/03 05:18:20;;;;;;;8.00;2.28;;;20.70;48.30;;;;;;5065132;28;20058;-58
2022/01/03 05:20:45;;;;;;;9.38;2.60;;;20.70;48.30;;;;;;5052468;28;20057;-58
2022/01/03 05:23:11;;;;;;;7.65;2.55;;;20.70;48.40;;;;;;5056434;28;20048;-58
2022/01/03 05:25:36;;;;;;;9.75;3.00;;;20.60;48.30;;;;;;5049197;28;20098;-58
2022/01/03 05:28:02;;;;;;;10.05;2.97;;;20.60;48.40;;;;;;5062167;28;20053;-58
2022/01/03 05:30:28;;;;;;;8.70;2.80;;;20.60;48.30;;;;;;5069793;28;20048;-58
2022/01/03 05:32:54;;;;;;;10.75;2.80;;;20.60;49.00;;;;;;5070275;28;20133;-58
2022/01/03 05:35:19;;;;;;;7.20;2.53;;;20.60;48.40;;;;;;5068675;28;20055;-57
2022/01/03 05:37:45;;;;;;;10.35;2.80;;;20.60;48.40;;;;;;5078390;28;20486;-57
2022/01/03 05:40:10;;;;;;;7.60;2.67;;;20.60;48.50;;;;;;5060166;28;20040;-57
2022/01/03 05:42:38;;;;;;;11.18;3.08;;;20.60;48.50;;;;;;5059173;28;20033;-57
2022/01/03 05:45:04;;;;;;;8.82;2.75;;;20.60;48.60;;;;;;5050067;28;20044;-56
2022/01/03 05:47:30;;;;;;;7.13;2.58;;;20.60;48.50;;;;;;5087603;28;20437;-57
2022/01/03 05:49:56;;;;;;;12.00;2.78;;;20.60;48.60;;;;;;5066176;28;20046;-58
2022/01/03 05:52:22;;;;;;;9.98;3.35;;;20.60;48.60;;;;;;5051006;28;20049;-58
2022/01/03 05:54:48;;;;;;;9.52;3.08;;;20.60;48.60;;;;;;5069784;28;20040;-58
2022/01/03 05:57:14;;;;;;;8.82;2.53;;;20.60;48.70;;;;;;5066351;28;20494;-58
2022/01/03 05:59:39;;;;;;;12.30;3.10;;;20.60;48.80;;;;;;5069270;28;20072;-58
2022/01/03 06:02:05;;;;;;;12.25;2.95;;;20.60;48.80;;;;;;5073056;28;20040;-57
2022/01/03 06:05:06;;;;;;;13.27;2.80;;;20.60;48.90;;;;;;5073616;28;20076;-58
2022/01/03 06:07:23;;;;;;;8.98;2.38;;;20.60;48.80;;;;;;5053812;28;20107;-57
2022/01/03 06:09:50;;;;;;;11.50;3.17;;;20.60;48.90;;;;;;5057086;28;20041;-57
2022/01/03 06:12:17;;;;;;;7.90;2.80;;;20.60;48.90;;;;;;5068681;28;20040;-58
2022/01/03 06:14:45;;;;;;;7.53;2.20;;;20.60;48.90;;;;;;5072388;28;20144;-58
2022/01/03 06:17:12;;;;;;;10.07;2.92;;;20.60;48.90;;;;;;5073732;28;20086;-59
2022/01/03 06:19:38;;;;;;;11.00;2.97;;;20.60;48.90;;;;;;5067887;28;20037;-57
2022/01/03 06:22:05;;;;;;;10.02;2.83;;;20.60;48.80;;;;;;5071793;28;20037;-57
2022/01/03 06:24:30;;;;;;;9.27;2.30;;;20.60;48.80;;;;;;5072156;28;20040;-57
2022/01/03 06:26:56;;;;;;;10.57;2.92;;;20.60;48.80;;;;;;5064753;28;20549;-58
2022/01/03 06:29:22;;;;;;;7.85;2.90;;;20.60;48.80;;;;;;5056329;28;20086;-58
2022/01/03 06:31:48;;;;;;;11.65;3.00;;;20.60;48.80;;;;;;5051533;28;20036;-58
2022/01/03 06:34:15;;;;;;;9.57;3.17;;;20.60;48.70;;;;;;5063386;28;20405;-58
2022/01/03 06:36:41;;;;;;;7.20;2.95;;;20.60;48.70;;;;;;5062439;28;20401;-58
2022/01/03 06:39:09;;;;;;;12.05;2.92;;;20.60;48.70;;;;;;5056226;28;20041;-58
2022/01/03 06:41:35;;;;;;;9.10;3.35;;;20.60;48.70;;;;;;5060962;28;20041;-58
2022/01/03 06:44:01;;;;;;;11.85;2.78;;;20.60;48.80;;;;;;5056760;28;20048;-58
2022/01/03 06:46:27;;;;;;;11.15;2.53;;;20.60;48.70;;;;;;5071282;28;20044;-58
2022/01/03 06:48:52;;;;;;;8.60;3.17;;;20.60;48.70;;;;;;5071635;28;20041;-58
2022/01/03 06:51:18;;;;;;;9.55;3.00;;;20.60;48.70;;;;;;5068240;28;20098;-57
2022/01/03 06:53:44;;;;;;;19.42;4.32;;;20.60;48.60;;;;;;5066097;28;20040;-58
2022/01/03 06:56:09;;;;;;;10.80;3.25;;;20.60;48.60;;;;;;5071459;28;20380;-58
2022/01/03 06:58:35;;;;;;;14.38;3.63;;;20.70;48.60;;;;;;5069953;28;20098;-58
2022/01/03 07:01:02;;;;;;;9.40;2.95;;;20.70;48.60;;;;;;5075633;28;20037;-58
2022/01/03 07:03:28;;;;;;;15.48;3.60;;;20.80;48.70;;;;;;5075657;28;20059;-58
2022/01/03 07:05:54;;;;;;;15.18;3.47;;;20.70;48.70;;;;;;5057719;28;20041;-58
2022/01/03 07:08:21;;;;;;;12.98;2.75;;;20.70;48.70;;;;;;5075685;28;20044;-58
2022/01/03 07:10:49;;;;;;;12.48;3.25;;;20.70;48.70;;;;;;5075743;28;20114;-58
2022/01/03 07:13:15;;;;;;;11.48;2.97;;;20.70;48.70;;;;;;5075270;28;20041;-57
2022/01/03 07:21:13;;;;;;;13.20;3.60;;;20.70;48.70;;;;;;5055649;28;20068;-58
2022/01/03 07:23:40;;;;;;;11.65;3.38;;;20.80;48.70;;;;;;5055341;28;20483;-58
2022/01/03 07:26:06;;;;;;;13.25;3.47;;;20.80;48.70;;;;;;5055311;28;20080;-58
2022/01/03 07:28:31;;;;;;;8.90;2.97;;;20.80;48.80;;;;;;5055318;28;20114;-59
2022/01/03 07:30:57;;;;;;;10.35;3.55;;;20.80;48.70;;;;;;5055177;28;20045;-59
2022/01/03 07:33:22;;;;;;;8.00;2.78;;;20.80;48.80;;;;;;5055325;28;20136;-57
2022/01/03 07:35:48;;;;;;;10.07;3.30;;;20.80;48.70;;;;;;5055073;28;20461;-58
2022/01/03 07:38:13;;;;;;;9.38;3.15;;;20.80;48.70;;;;;;5055034;28;20052;-58
2022/01/03 07:40:40;;;;;;;12.45;3.60;;;20.80;48.70;;;;;;5055166;28;20047;-58
2022/01/03 07:43:06;;;;;;;10.65;3.25;;;20.90;48.80;;;;;;5054213;28;20044;-57
2022/01/03 07:45:31;;;;;;;10.80;3.30;;;20.90;48.80;;;;;;5054825;28;20048;-58
2022/01/03 07:47:57;;;;;;;13.57;3.53;;;20.90;48.70;;;;;;5055214;28;20120;-58
2022/01/03 07:50:22;;;;;;;12.02;3.08;;;20.80;49.00;;;;;;5054621;28;20045;-57
2022/01/03 07:52:48;;;;;;;9.38;3.03;;;20.90;48.70;;;;;;5054609;28;20037;-58
2022/01/03 07:55:15;;;;;;;11.95;3.50;;;20.90;48.70;;;;;;5054592;28;20045;-58
2022/01/03 07:57:41;;;;;;;11.20;3.80;;;20.90;48.70;;;;;;5054595;28;20041;-58
2022/01/03 08:00:10;;;;;;;9.88;3.08;;;20.90;48.70;;;;;;5054567;28;20376;-58
2022/01/03 08:02:38;;;;;;;9.60;3.05;;;20.90;48.60;;;;;;5053456;28;20123;-58
2022/01/03 08:05:05;;;;;;;9.88;2.95;;;20.90;48.60;;;;;;5053394;28;20045;-58
2022/01/03 08:07:30;;;;;;;12.32;3.20;;;20.90;48.60;;;;;;5054705;28;20072;-58
2022/01/03 08:09:56;;;;;;;8.77;3.35;;;20.90;48.60;;;;;;5054317;28;20036;-58
2022/01/03 08:12:21;;;;;;;11.07;3.15;;;20.90;48.50;;;;;;5054309;28;20059;-58
2022/01/03 08:14:47;;;;;;;9.23;3.20;;;21.00;48.60;;;;;;5053094;28;20040;-58
2022/01/03 08:17:12;;;;;;;8.48;3.35;;;20.90;48.50;;;;;;5053934;28;20068;-58
2022/01/03 08:19:38;;;;;;;10.70;3.40;;;21.00;48.50;;;;;;5054003;28;20041;-58
2022/01/03 08:22:04;;;;;;;10.80;3.80;;;21.00;48.50;;;;;;5054864;28;20037;-58
2022/01/03 08:24:29;;;;;;;11.50;3.40;;;21.00;48.50;;;;;;5053959;28;20457;-60
2022/01/03 08:26:55;;;;;;;10.98;3.50;;;21.00;48.50;;;;;;5052387;28;20358;-60
2022/01/03 08:29:21;;;;;;;11.30;3.72;;;21.00;48.50;;;;;;5054074;28;20043;-59
2022/01/03 08:31:46;;;;;;;13.95;3.78;;;21.00;48.60;;;;;;5054096;28;20087;-59
2022/01/03 08:34:12;;;;;;;10.65;3.17;;;21.00;48.50;;;;;;5053995;28;20106;-59
2022/01/03 08:36:38;;;;;;;12.05;3.40;;;21.00;48.60;;;;;;5053992;28;20037;-59
2022/01/03 08:39:04;;;;;;;11.43;3.35;;;21.00;48.70;;;;;;5053417;28;20037;-58
2022/01/03 08:41:30;;;;;;;10.98;3.00;;;21.10;48.90;;;;;;5053817;28;20173;-58
2022/01/03 08:43:55;;;;;;;12.27;3.60;;;21.10;48.90;;;;;;5054370;28;20119;-58
2022/01/03 08:46:23;;;;;;;10.15;3.35;;;21.10;49.00;;;;;;5053840;28;20548;-58
2022/01/03 08:48:50;;;;;;;9.00;3.08;;;21.10;48.90;;;;;;5053835;28;20037;-59
2022/01/03 08:51:15;;;;;;;8.50;3.30;;;21.10;49.00;;;;;;5053717;28;20437;-58
2022/01/03 08:53:41;;;;;;;10.68;3.50;;;21.10;49.00;;;;;;5053669;28;20167;-59
2022/01/03 08:56:06;;;;;;;9.25;3.30;;;21.10;49.00;;;;;;5053645;28;20080;-59
2022/01/03 08:58:32;;;;;;;11.65;3.88;;;21.10;49.00;;;;;;5052855;28;20079;-59
2022/01/03 09:00:57;;;;;;;9.15;3.17;;;21.10;49.00;;;;;;5053187;28;20049;-59
2022/01/03 09:03:23;;;;;;;8.15;3.08;;;21.10;48.90;;;;;;5054003;28;20041;-59
2022/01/03 09:05:53;;;;;;;12.82;3.63;;;21.20;49.00;;;;;;5054265;28;20037;-59
2022/01/03 09:08:19;;;;;;;9.57;3.33;;;21.20;49.00;;;;;;5054224;28;20519;-59
2022/01/03 09:10:45;;;;;;;11.82;3.95;;;21.20;49.00;;;;;;5052516;28;20076;-59
2022/01/03 09:13:10;;;;;;;11.45;3.75;;;21.20;49.00;;;;;;5053830;28;20033;-59
2022/01/03 09:15:37;;;;;;;12.63;3.10;;;21.20;49.00;;;;;;5053272;28;20036;-59
2022/01/03 09:18:03;;;;;;;9.75;3.53;;;21.20;49.00;;;;;;5053365;28;20049;-58
2022/01/03 09:20:29;;;;;;;8.85;3.05;;;21.20;48.90;;;;;;5053266;28;20169;-58
2022/01/03 09:23:04;;;;;;;7.85;2.90;;;21.20;49.00;;;;;;5053255;28;20049;-58
2022/01/03 09:30:45;;;;;;;9.23;3.20;;;21.20;49.10;;;;;;5053264;28;20086;-58
2022/01/03 09:33:12;;;;;;;11.07;3.22;;;21.30;49.10;;;;;;5053126;28;20049;-59
2022/01/03 09:35:38;;;;;;;8.75;3.17;;;21.30;49.10;;;;;;5058813;28;20045;-59
2022/01/03 09:38:03;;;;;;;8.90;3.25;;;21.30;49.10;;;;;;5076729;28;20041;-59
2022/01/03 09:40:29;;;;;;;9.45;3.45;;;21.30;49.10;;;;;;5077266;28;20041;-59
2022/01/03 09:42:57;;;;;;;11.95;3.80;;;21.30;49.00;;;;;;5077235;28;20040;-59
2022/01/03 09:45:27;;;;;;;7.72;3.10;;;21.30;49.10;;;;;;5077199;28;20539;-59
2022/01/03 09:47:55;;;;;;;9.13;3.15;;;21.30;49.10;;;;;;5077187;28;20036;-59
2022/01/03 09:50:21;;;;;;;9.45;2.95;;;21.30;49.90;;;;;;5077181;28;20058;-59
2022/01/03 09:52:48;;;;;;;9.30;3.13;;;21.30;49.10;;;;;;5077144;28;20052;-58
2022/01/03 09:55:19;;;;;;;11.02;3.40;;;21.40;49.10;;;;;;5077579;28;20142;-58
2022/01/03 09:57:46;;;;;;;11.60;2.70;;;21.40;49.10;;;;;;5076896;28;20052;-59
2022/01/03 10:00:16;;;;;;;11.88;3.13;;;21.40;49.10;;;;;;5077232;28;20114;-59
2022/01/03 10:02:45;;;;;;;8.23;2.80;;;21.40;49.00;;;;;;5076598;28;20471;-59
2022/01/03 10:05:12;;;;;;;10.27;3.40;;;21.40;49.10;;;;;;5077201;28;20079;-59
2022/01/03 10:07:39;;;;;;;9.73;3.25;;;21.40;49.10;;;;;;5076757;28;20084;-59
2022/01/03 10:10:06;;;;;;;8.68;3.00;;;21.40;49.00;;;;;;5076645;28;20055;-59
2022/01/03 10:12:32;;;;;;;13.57;3.75;;;21.40;49.00;;;;;;5076747;28;20044;-59
2022/01/03 10:14:58;;;;;;;8.95;3.50;;;21.40;49.10;;;;;;5076691;28;20043;-59
2022/01/03 10:17:24;;;;;;;9.40;3.00;;;21.40;49.10;;;;;;5076518;28;20099;-59
2022/01/03 10:19:56;;;;;;;13.75;3.53;;;21.50;49.10;;;;;;5076096;28;20385;-59
2022/01/03 10:22:27;;;;;;;10.15;3.35;;;21.50;49.10;;;;;;5076470;28;20044;-60
2022/01/03 10:24:54;;;;;;;10.18;3.60;;;21.50;49.20;;;;;;5077001;28;20049;-59
2022/01/03 10:27:22;;;;;;;10.55;3.42;;;21.50;49.20;;;;;;5075091;28;20043;-59
2022/01/03 10:29:58;;;;;;;10.25;3.67;;;21.50;49.20;;;;;;5076218;28;20075;-58
2022/01/03 10:32:30;;;;;;;8.55;3.25;;;21.50;48.70;;;;;;5076177;28;20076;-58
2022/01/03 10:35:13;;;;;;;10.75;2.88;;;21.50;49.20;;;;;;5076224;28;20046;-58
2022/01/03 10:37:39;;;;;;;7.60;2.90;;;21.50;49.10;;;;;;5076241;28;20041;-58
2022/01/03 10:40:28;;;;;;;8.65;3.03;;;21.50;49.10;;;;;;5076040;28;20051;-59
2022/01/03 10:42:58;;;;;;;9.70;2.97;;;21.50;49.10;;;;;;5076336;28;20044;-58
2022/01/03 10:45:29;;;;;;;9.23;3.27;;;21.50;49.10;;;;;;5076519;28;20352;-58
2022/01/03 10:47:55;;;;;;;14.77;3.97;;;21.60;49.10;;;;;;5075043;28;20492;-58
2022/01/03 10:50:22;;;;;;;9.20;3.25;;;21.50;49.00;;;;;;5075867;28;20040;-59
2022/01/03 10:52:49;;;;;;;13.27;3.47;;;21.60;49.10;;;;;;5076409;28;20131;-60
2022/01/03 10:55:23;;;;;;;9.75;3.42;;;21.50;49.10;;;;;;5075854;28;20139;-58
2022/01/03 10:57:52;;;;;;;11.43;3.33;;;21.60;49.10;;;;;;5075817;28;20036;-59
2022/01/03 11:00:31;;;;;;;9.23;3.40;;;21.60;49.20;;;;;;5074448;28;20036;-59
2022/01/03 11:05:56;;;;;;;9.00;3.20;;;21.60;49.20;;;;;;5075965;28;20052;-59
2022/01/03 11:11:10;;;;;;;9.38;3.65;;;21.60;49.20;;;;;;5075611;28;20050;-58
2022/01/03 11:13:49;;;;;;;8.18;3.10;;;21.60;49.20;;;;;;5075483;28;20103;-58
2022/01/03 11:16:15;;;;;;;10.18;3.50;;;21.60;49.10;;;;;;5075902;28;20036;-58
2022/01/03 11:18:48;;;;;;;8.52;3.03;;;21.60;49.10;;;;;;5075831;28;20344;-58
2022/01/03 11:21:16;;;;;;;9.85;3.40;;;21.60;49.00;;;;;;5075294;28;20052;-58
2022/01/03 11:23:50;;;;;;;8.27;3.33;;;21.60;49.00;;;;;;5075559;28;20041;-58
2022/01/03 11:26:20;;;;;;;8.80;3.15;;;21.60;48.90;;;;;;5075773;28;20444;-58
2022/01/03 11:28:47;;;;;;;12.80;3.65;;;21.60;48.90;;;;;;5075119;28;20080;-58
2022/01/03 11:31:17;;;;;;;10.68;3.30;;;21.60;48.90;;;;;;5075473;28;20101;-58
2022/01/03 11:33:43;;;;;;;10.32;3.25;;;21.60;48.80;;;;;;5075920;28;20044;-58
2022/01/03 11:36:09;;;;;;;10.10;3.05;;;21.60;48.80;;;;;;5075082;28;20068;-58
2022/01/03 11:38:36;;;;;;;9.73;3.28;;;21.60;48.80;;;;;;5068782;28;20380;-58
2022/01/03 11:41:05;;;;;;;16.10;3.28;;;21.60;48.80;;;;;;5070694;28;20051;-58
2022/01/03 11:43:35;;;;;;;13.98;3.88;;;21.60;48.80;;;;;;5064678;28;20037;-58
2022/01/03 11:46:01;;;;;;;10.82;3.35;;;21.60;48.80;;;;;;5055739;28;20037;-58
2022/01/03 11:48:28;;;;;;;9.32;3.05;;;21.60;48.80;;;;;;5062825;28;20472;-58
2022/01/03 11:50:57;;;;;;;8.93;2.80;;;21.60;48.70;;;;;;5068340;28;20040;-58
2022/01/03 11:53:23;;;;;;;8.90;2.95;;;21.60;48.60;;;;;;5058236;28;20040;-58
2022/01/03 11:55:54;;;;;;;9.98;3.45;;;21.60;48.60;;;;;;5049949;28;20036;-58
2022/01/03 11:58:44;;;;;;;9.18;3.03;;;21.60;48.60;;;;;;5054377;28;20488;-58
2022/01/03 12:03:57;;;;;;;9.95;3.17;;;21.60;48.50;;;;;;5068274;28;20068;-58
2022/01/03 12:06:28;;;;;;;10.13;3.40;;;21.60;48.50;;;;;;5052325;28;20068;-58
2022/01/03 12:08:59;;;;;;;12.32;3.00;;;21.60;48.70;;;;;;5053269;28;20044;-58
2022/01/03 12:11:29;;;;;;;9.43;3.08;;;21.60;48.80;;;;;;5056891;28;20041;-58
2022/01/03 12:13:57;;;;;;;10.60;3.42;;;21.60;49.10;;;;;;5059798;28;20108;-58
2022/01/03 12:16:45;;;;;;;9.98;3.58;;;21.60;49.20;;;;;;5053990;28;20384;-58
2022/01/03 12:19:27;;;;;;;12.52;3.15;;;21.60;49.50;;;;;;5064869;28;20376;-58
2022/01/03 12:22:13;;;;;;;12.38;3.53;;;21.60;49.50;;;;;;5053140;28;20067;-58
2022/01/03 12:25:03;;;;;;;9.35;3.08;;;21.60;49.60;;;;;;5063001;28;20043;-58
2022/01/03 12:27:35;;;;;;;8.77;3.00;;;21.60;49.60;;;;;;5070473;28;20102;-60
2022/01/03 12:30:02;;;;;;;11.50;3.60;;;21.60;49.40;;;;;;5064523;28;20384;-59
2022/01/03 12:32:40;;;;;;;10.10;3.35;;;21.60;49.40;;;;;;5059318;28;20446;-58
2022/01/03 12:35:10;;;;;;;10.60;2.90;;;21.60;49.30;;;;;;5051879;28;20097;-59
2022/01/03 12:37:59;;;;;;;9.90;3.22;;;21.60;49.30;;;;;;5058293;28;20047;-57
2022/01/03 12:40:30;;;;;;;10.32;3.00;;;21.60;49.30;;;;;;5083479;28;20048;-57
2022/01/03 12:43:01;;;;;;;9.75;3.00;;;21.60;49.30;;;;;;5048967;28;20041;-57
2022/01/03 12:45:29;;;;;;;9.73;3.10;;;21.60;49.30;;;;;;5053917;28;20045;-57
2022/01/03 12:48:19;;;;;;;11.30;3.17;;;21.60;49.20;;;;;;5064905;28;20135;-57
2022/01/03 12:50:51;;;;;;;8.90;2.80;;;21.60;49.10;;;;;;5057502;28;20048;-58
2022/01/03 12:53:31;;;;;;;12.43;3.75;;;21.60;49.20;;;;;;5053654;28;20045;-57
2022/01/03 12:56:12;;;;;;;6.88;2.50;;;21.60;49.00;;;;;;5050931;28;20426;-57
2022/01/03 12:58:43;;;;;;;10.00;2.55;;;21.50;48.90;;;;;;5063274;28;20043;-57
2022/01/03 13:01:12;;;;;;;8.15;2.50;;;21.50;48.90;;;;;;5074199;28;20041;-57
2022/01/03 13:03:51;;;;;;;9.35;3.50;;;21.50;48.80;;;;;;5070760;28;20521;-58
2022/01/03 13:06:18;;;;;;;8.80;2.97;;;21.50;49.40;;;;;;5073853;28;20040;-57
2022/01/03 13:08:55;;;;;;;9.32;2.95;;;21.50;49.40;;;;;;5073383;28;20131;-57